sensor_id;sensor_type;location;lat;lon;timestamp;P1;durP1;ratioP1;P2;durP2;ratioP2
41927;SDS011;27616;51.420;6.788;2023-03-01T00:02:02;13.13;;;7.00;;
41927;SDS011;27616;51.420;6.788;2023-03-01T00:04:29;13.53;;;6.97;;
41927;SDS011;27616;51.420;6.788;2023-03-01T00:06:55;13.03;;;7.23;;
41927;SDS011;27616;51.420;6.788;2023-03-01T00:09:21;12.70;;;7.30;;
41927;SDS011;27616;51.420;6.788;2023-03-01T00:11:47;13.83;;;7.27;;
41927;SDS011;27616;51.420;6.788;2023-03-01T00:14:12;13.87;;;7.37;;
41927;SDS011;27616;51.420;6.788;2023-03-01T00:16:40;15.57;;;7.17;;
41927;SDS011;27616;51.420;6.788;2023-03-01T00:19:07;12.30;;;7.63;;
41927;SDS011;27616;51.420;6.788;2023-03-01T00:21:38;15.43;;;8.10;;
41927;SDS011;27616;51.420;6.788;2023-03-01T00:24:04;19.57;;;7.97;;
41927;SDS011;27616;51.420;6.788;2023-03-01T00:26:30;13.37;;;7.77;;
41927;SDS011;27616;51.420;6.788;2023-03-01T00:28:56;17.50;;;7.23;;
41927;SDS011;27616;51.420;6.788;2023-03-01T00:31:24;13.10;;;7.50;;
41927;SDS011;27616;51.420;6.788;2023-03-01T00:33:54;15.23;;;7.13;;
41927;SDS011;27616;51.420;6.788;2023-03-01T00:36:23;14.07;;;7.93;;
41927;SDS011;27616;51.420;6.788;2023-03-01T00:38:50;16.10;;;7.77;;
41927;SDS011;27616;51.420;6.788;2023-03-01T00:41:16;14.13;;;7.57;;
41927;SDS011;27616;51.420;6.788;2023-03-01T00:43:43;18.60;;;7.53;;
41927;SDS011;27616;51.420;6.788;2023-03-01T00:46:10;13.97;;;7.50;;
41927;SDS011;27616;51.420;6.788;2023-03-01T00:48:42;13.40;;;7.83;;
41927;SDS011;27616;51.420;6.788;2023-03-01T00:51:08;14.87;;;8.03;;
41927;SDS011;27616;51.420;6.788;2023-03-01T00:53:56;13.60;;;7.97;;
41927;SDS011;27616;51.420;6.788;2023-03-01T00:56:23;14.87;;;8.10;;
41927;SDS011;27616;51.420;6.788;2023-03-01T00:58:50;14.60;;;7.93;;
41927;SDS011;27616;51.420;6.788;2023-03-01T01:01:16;12.80;;;7.00;;
41927;SDS011;27616;51.420;6.788;2023-03-01T01:03:58;13.73;;;7.63;;
41927;SDS011;27616;51.420;6.788;2023-03-01T01:08:53;15.03;;;7.80;;
41927;SDS011;27616;51.420;6.788;2023-03-01T01:11:20;11.83;;;7.10;;
41927;SDS011;27616;51.420;6.788;2023-03-01T01:13:47;12.10;;;7.30;;
41927;SDS011;27616;51.420;6.788;2023-03-01T01:16:13;11.97;;;7.83;;
41927;SDS011;27616;51.420;6.788;2023-03-01T01:18:40;13.77;;;7.53;;
41927;SDS011;27616;51.420;6.788;2023-03-01T01:21:08;15.23;;;8.00;;
41927;SDS011;27616;51.420;6.788;2023-03-01T01:23:37;14.35;;;7.78;;
41927;SDS011;27616;51.420;6.788;2023-03-01T01:26:08;12.90;;;7.77;;
41927;SDS011;27616;51.420;6.788;2023-03-01T01:28:36;15.80;;;7.93;;
41927;SDS011;27616;51.420;6.788;2023-03-01T01:31:03;14.83;;;8.07;;
41927;SDS011;27616;51.420;6.788;2023-03-01T01:33:29;15.67;;;8.33;;
41927;SDS011;27616;51.420;6.788;2023-03-01T01:35:55;11.47;;;7.23;;
41927;SDS011;27616;51.420;6.788;2023-03-01T01:38:21;13.83;;;7.67;;
41927;SDS011;27616;51.420;6.788;2023-03-01T01:40:48;15.47;;;7.93;;
41927;SDS011;27616;51.420;6.788;2023-03-01T01:43:25;14.67;;;8.47;;
41927;SDS011;27616;51.420;6.788;2023-03-01T01:49:09;16.90;;;8.70;;
41927;SDS011;27616;51.420;6.788;2023-03-01T01:51:49;17.33;;;8.17;;
41927;SDS011;27616;51.420;6.788;2023-03-01T01:54:22;14.80;;;7.97;;
41927;SDS011;27616;51.420;6.788;2023-03-01T01:56:55;18.13;;;8.40;;
41927;SDS011;27616;51.420;6.788;2023-03-01T01:59:23;17.13;;;8.73;;
41927;SDS011;27616;51.420;6.788;2023-03-01T02:01:51;18.77;;;8.77;;
41927;SDS011;27616;51.420;6.788;2023-03-01T02:04:17;13.30;;;8.30;;
41927;SDS011;27616;51.420;6.788;2023-03-01T02:06:48;11.83;;;8.00;;
41927;SDS011;27616;51.420;6.788;2023-03-01T02:09:20;13.13;;;8.17;;
41927;SDS011;27616;51.420;6.788;2023-03-01T02:11:48;17.53;;;8.47;;
41927;SDS011;27616;51.420;6.788;2023-03-01T02:14:15;15.23;;;8.03;;
41927;SDS011;27616;51.420;6.788;2023-03-01T02:16:41;16.10;;;8.83;;
41927;SDS011;27616;51.420;6.788;2023-03-01T02:19:08;15.50;;;8.30;;
41927;SDS011;27616;51.420;6.788;2023-03-01T02:21:57;13.53;;;8.20;;
41927;SDS011;27616;51.420;6.788;2023-03-01T02:24:59;14.02;;;8.57;;
41927;SDS011;27616;51.420;6.788;2023-03-01T02:28:00;14.47;;;8.40;;
41927;SDS011;27616;51.420;6.788;2023-03-01T02:30:41;14.53;;;8.53;;
41927;SDS011;27616;51.420;6.788;2023-03-01T02:33:29;15.23;;;8.27;;
41927;SDS011;27616;51.420;6.788;2023-03-01T02:36:01;15.37;;;8.37;;
41927;SDS011;27616;51.420;6.788;2023-03-01T02:38:31;12.57;;;8.10;;
41927;SDS011;27616;51.420;6.788;2023-03-01T02:40:57;18.63;;;9.47;;
41927;SDS011;27616;51.420;6.788;2023-03-01T02:43:26;16.83;;;8.67;;
41927;SDS011;27616;51.420;6.788;2023-03-01T02:45:57;17.70;;;8.63;;
41927;SDS011;27616;51.420;6.788;2023-03-01T02:48:24;14.02;;;8.75;;
41927;SDS011;27616;51.420;6.788;2023-03-01T02:56:13;16.63;;;9.20;;
41927;SDS011;27616;51.420;6.788;2023-03-01T02:58:40;22.43;;;8.73;;
41927;SDS011;27616;51.420;6.788;2023-03-01T03:01:12;19.10;;;8.97;;
41927;SDS011;27616;51.420;6.788;2023-03-01T03:03:40;14.93;;;8.83;;
41927;SDS011;27616;51.420;6.788;2023-03-01T03:06:06;14.93;;;8.70;;
41927;SDS011;27616;51.420;6.788;2023-03-01T03:08:32;16.83;;;8.80;;
41927;SDS011;27616;51.420;6.788;2023-03-01T03:10:58;15.83;;;8.43;;
41927;SDS011;27616;51.420;6.788;2023-03-01T03:13:24;16.27;;;8.53;;
41927;SDS011;27616;51.420;6.788;2023-03-01T03:15:54;15.60;;;9.13;;
41927;SDS011;27616;51.420;6.788;2023-03-01T03:18:21;18.03;;;9.37;;
41927;SDS011;27616;51.420;6.788;2023-03-01T03:20:51;17.17;;;8.83;;
41927;SDS011;27616;51.420;6.788;2023-03-01T03:23:19;19.10;;;9.83;;
41927;SDS011;27616;51.420;6.788;2023-03-01T03:25:47;19.20;;;9.67;;
41927;SDS011;27616;51.420;6.788;2023-03-01T03:28:14;14.87;;;8.80;;
41927;SDS011;27616;51.420;6.788;2023-03-01T03:30:41;15.73;;;8.53;;
41927;SDS011;27616;51.420;6.788;2023-03-01T03:33:08;17.43;;;9.27;;
41927;SDS011;27616;51.420;6.788;2023-03-01T03:35:38;16.77;;;8.87;;
41927;SDS011;27616;51.420;6.788;2023-03-01T03:38:08;19.90;;;9.20;;
41927;SDS011;27616;51.420;6.788;2023-03-01T03:40:42;15.60;;;8.90;;
41927;SDS011;27616;51.420;6.788;2023-03-01T03:43:10;18.53;;;9.30;;
41927;SDS011;27616;51.420;6.788;2023-03-01T03:45:41;20.50;;;10.90;;
41927;SDS011;27616;51.420;6.788;2023-03-01T03:48:09;15.73;;;9.00;;
41927;SDS011;27616;51.420;6.788;2023-03-01T03:50:35;15.43;;;9.30;;
41927;SDS011;27616;51.420;6.788;2023-03-01T03:53:02;16.00;;;8.87;;
41927;SDS011;27616;51.420;6.788;2023-03-01T03:55:30;15.40;;;8.47;;
41927;SDS011;27616;51.420;6.788;2023-03-01T03:57:59;16.80;;;9.40;;
41927;SDS011;27616;51.420;6.788;2023-03-01T04:00:32;17.13;;;8.77;;
41927;SDS011;27616;51.420;6.788;2023-03-01T04:02:59;16.63;;;9.90;;
41927;SDS011;27616;51.420;6.788;2023-03-01T04:05:25;16.47;;;9.07;;
41927;SDS011;27616;51.420;6.788;2023-03-01T04:07:51;15.87;;;9.37;;
41927;SDS011;27616;51.420;6.788;2023-03-01T04:10:26;19.03;;;9.40;;
41927;SDS011;27616;51.420;6.788;2023-03-01T04:12:57;16.13;;;8.80;;
41927;SDS011;27616;51.420;6.788;2023-03-01T04:15:23;18.37;;;9.53;;
41927;SDS011;27616;51.420;6.788;2023-03-01T04:17:51;19.93;;;9.77;;
41927;SDS011;27616;51.420;6.788;2023-03-01T04:20:19;18.57;;;9.17;;
41927;SDS011;27616;51.420;6.788;2023-03-01T04:22:51;17.03;;;9.37;;
41927;SDS011;27616;51.420;6.788;2023-03-01T04:25:22;17.17;;;9.30;;
41927;SDS011;27616;51.420;6.788;2023-03-01T04:27:51;20.88;;;9.20;;
41927;SDS011;27616;51.420;6.788;2023-03-01T04:30:17;15.73;;;8.87;;
41927;SDS011;27616;51.420;6.788;2023-03-01T04:32:42;17.47;;;8.80;;
41927;SDS011;27616;51.420;6.788;2023-03-01T04:35:08;17.23;;;9.10;;
41927;SDS011;27616;51.420;6.788;2023-03-01T04:37:34;18.03;;;10.43;;
41927;SDS011;27616;51.420;6.788;2023-03-01T04:40:01;18.00;;;10.00;;
41927;SDS011;27616;51.420;6.788;2023-03-01T04:42:38;14.90;;;8.57;;
41927;SDS011;27616;51.420;6.788;2023-03-01T04:45:04;16.80;;;9.17;;
41927;SDS011;27616;51.420;6.788;2023-03-01T04:47:38;19.23;;;9.50;;
41927;SDS011;27616;51.420;6.788;2023-03-01T04:50:05;20.83;;;9.73;;
41927;SDS011;27616;51.420;6.788;2023-03-01T04:52:32;16.53;;;9.07;;
41927;SDS011;27616;51.420;6.788;2023-03-01T04:54:58;19.70;;;9.40;;
41927;SDS011;27616;51.420;6.788;2023-03-01T04:57:23;17.40;;;9.97;;
41927;SDS011;27616;51.420;6.788;2023-03-01T04:59:49;18.83;;;9.30;;
41927;SDS011;27616;51.420;6.788;2023-03-01T05:02:14;18.67;;;9.23;;
41927;SDS011;27616;51.420;6.788;2023-03-01T05:04:40;18.27;;;9.17;;
41927;SDS011;27616;51.420;6.788;2023-03-01T05:07:06;16.40;;;9.70;;
41927;SDS011;27616;51.420;6.788;2023-03-01T05:09:31;17.87;;;9.50;;
41927;SDS011;27616;51.420;6.788;2023-03-01T05:11:57;20.60;;;9.63;;
41927;SDS011;27616;51.420;6.788;2023-03-01T05:14:23;18.50;;;9.97;;
41927;SDS011;27616;51.420;6.788;2023-03-01T05:16:48;20.23;;;9.80;;
41927;SDS011;27616;51.420;6.788;2023-03-01T05:19:14;20.13;;;9.67;;
41927;SDS011;27616;51.420;6.788;2023-03-01T05:21:40;18.80;;;9.90;;
41927;SDS011;27616;51.420;6.788;2023-03-01T05:24:25;17.70;;;9.47;;
41927;SDS011;27616;51.420;6.788;2023-03-01T05:26:52;21.37;;;10.23;;
41927;SDS011;27616;51.420;6.788;2023-03-01T05:29:21;18.57;;;9.97;;
41927;SDS011;27616;51.420;6.788;2023-03-01T05:31:56;18.00;;;9.23;;
41927;SDS011;27616;51.420;6.788;2023-03-01T05:34:24;18.90;;;10.13;;
41927;SDS011;27616;51.420;6.788;2023-03-01T05:36:52;20.03;;;10.03;;
41927;SDS011;27616;51.420;6.788;2023-03-01T05:39:22;19.03;;;10.13;;
41927;SDS011;27616;51.420;6.788;2023-03-01T05:41:53;22.03;;;11.70;;
41927;SDS011;27616;51.420;6.788;2023-03-01T05:44:20;19.77;;;10.40;;
41927;SDS011;27616;51.420;6.788;2023-03-01T05:46:46;20.20;;;10.13;;
41927;SDS011;27616;51.420;6.788;2023-03-01T05:49:14;21.20;;;11.10;;
41927;SDS011;27616;51.420;6.788;2023-03-01T05:51:40;21.70;;;10.93;;
41927;SDS011;27616;51.420;6.788;2023-03-01T05:54:06;21.40;;;10.73;;
41927;SDS011;27616;51.420;6.788;2023-03-01T05:56:33;21.77;;;10.43;;
41927;SDS011;27616;51.420;6.788;2023-03-01T05:58:59;18.30;;;9.90;;
41927;SDS011;27616;51.420;6.788;2023-03-01T06:01:26;20.20;;;9.87;;
41927;SDS011;27616;51.420;6.788;2023-03-01T06:03:52;20.20;;;10.20;;
41927;SDS011;27616;51.420;6.788;2023-03-01T06:06:17;17.47;;;9.63;;
41927;SDS011;27616;51.420;6.788;2023-03-01T06:08:43;19.37;;;9.73;;
41927;SDS011;27616;51.420;6.788;2023-03-01T06:11:09;18.47;;;9.90;;
41927;SDS011;27616;51.420;6.788;2023-03-01T06:13:34;18.20;;;9.87;;
41927;SDS011;27616;51.420;6.788;2023-03-01T06:16:00;21.13;;;10.07;;
41927;SDS011;27616;51.420;6.788;2023-03-01T06:18:26;23.17;;;9.90;;
41927;SDS011;27616;51.420;6.788;2023-03-01T06:20:52;19.07;;;10.37;;
41927;SDS011;27616;51.420;6.788;2023-03-01T06:23:19;20.47;;;9.20;;
41927;SDS011;27616;51.420;6.788;2023-03-01T06:25:44;24.53;;;9.60;;
41927;SDS011;27616;51.420;6.788;2023-03-01T06:28:10;20.00;;;9.70;;
41927;SDS011;27616;51.420;6.788;2023-03-01T06:30:36;19.07;;;10.00;;
41927;SDS011;27616;51.420;6.788;2023-03-01T06:33:02;17.50;;;9.73;;
41927;SDS011;27616;51.420;6.788;2023-03-01T06:35:30;17.98;;;8.93;;
41927;SDS011;27616;51.420;6.788;2023-03-01T06:37:57;18.43;;;9.80;;
41927;SDS011;27616;51.420;6.788;2023-03-01T06:40:24;19.43;;;9.97;;
41927;SDS011;27616;51.420;6.788;2023-03-01T06:42:50;19.30;;;10.20;;
41927;SDS011;27616;51.420;6.788;2023-03-01T06:45:17;20.03;;;9.63;;
41927;SDS011;27616;51.420;6.788;2023-03-01T06:47:44;23.60;;;10.27;;
41927;SDS011;27616;51.420;6.788;2023-03-01T06:50:10;21.77;;;9.77;;
41927;SDS011;27616;51.420;6.788;2023-03-01T06:52:36;17.83;;;10.00;;
41927;SDS011;27616;51.420;6.788;2023-03-01T06:55:02;22.30;;;10.77;;
41927;SDS011;27616;51.420;6.788;2023-03-01T06:57:28;21.03;;;10.30;;
41927;SDS011;27616;51.420;6.788;2023-03-01T06:59:54;19.10;;;10.20;;
41927;SDS011;27616;51.420;6.788;2023-03-01T07:02:19;21.27;;;9.47;;
41927;SDS011;27616;51.420;6.788;2023-03-01T07:04:45;18.07;;;9.87;;
41927;SDS011;27616;51.420;6.788;2023-03-01T07:07:11;20.77;;;10.13;;
41927;SDS011;27616;51.420;6.788;2023-03-01T07:09:37;24.67;;;9.50;;
41927;SDS011;27616;51.420;6.788;2023-03-01T07:12:03;19.33;;;9.67;;
41927;SDS011;27616;51.420;6.788;2023-03-01T07:14:28;18.93;;;10.00;;
41927;SDS011;27616;51.420;6.788;2023-03-01T07:16:54;21.17;;;10.50;;
41927;SDS011;27616;51.420;6.788;2023-03-01T07:19:20;20.90;;;10.03;;
41927;SDS011;27616;51.420;6.788;2023-03-01T07:21:46;22.23;;;10.50;;
41927;SDS011;27616;51.420;6.788;2023-03-01T07:24:12;17.53;;;9.70;;
41927;SDS011;27616;51.420;6.788;2023-03-01T07:26:38;17.57;;;9.53;;
41927;SDS011;27616;51.420;6.788;2023-03-01T07:29:05;19.83;;;10.53;;
41927;SDS011;27616;51.420;6.788;2023-03-01T07:31:32;19.83;;;9.97;;
41927;SDS011;27616;51.420;6.788;2023-03-01T07:33:58;20.70;;;10.23;;
41927;SDS011;27616;51.420;6.788;2023-03-01T07:36:23;22.50;;;10.07;;
41927;SDS011;27616;51.420;6.788;2023-03-01T07:38:50;18.67;;;9.83;;
41927;SDS011;27616;51.420;6.788;2023-03-01T07:41:16;19.27;;;8.87;;
41927;SDS011;27616;51.420;6.788;2023-03-01T07:43:42;16.87;;;8.90;;
41927;SDS011;27616;51.420;6.788;2023-03-01T07:46:08;16.90;;;8.90;;
41927;SDS011;27616;51.420;6.788;2023-03-01T07:48:34;17.60;;;9.50;;
41927;SDS011;27616;51.420;6.788;2023-03-01T07:51:00;21.20;;;9.60;;
41927;SDS011;27616;51.420;6.788;2023-03-01T07:53:27;17.17;;;9.40;;
41927;SDS011;27616;51.420;6.788;2023-03-01T07:56:00;19.10;;;9.67;;
41927;SDS011;27616;51.420;6.788;2023-03-01T07:58:27;17.00;;;9.17;;
41927;SDS011;27616;51.420;6.788;2023-03-01T08:00:52;16.50;;;9.67;;
41927;SDS011;27616;51.420;6.788;2023-03-01T08:03:18;16.60;;;9.10;;
41927;SDS011;27616;51.420;6.788;2023-03-01T08:05:44;19.37;;;9.23;;
41927;SDS011;27616;51.420;6.788;2023-03-01T08:08:09;20.03;;;10.10;;
41927;SDS011;27616;51.420;6.788;2023-03-01T08:10:36;16.07;;;9.63;;
41927;SDS011;27616;51.420;6.788;2023-03-01T08:13:01;17.03;;;9.40;;
41927;SDS011;27616;51.420;6.788;2023-03-01T08:15:27;21.40;;;10.67;;
41927;SDS011;27616;51.420;6.788;2023-03-01T08:17:53;21.43;;;9.67;;
41927;SDS011;27616;51.420;6.788;2023-03-01T08:20:18;18.37;;;9.30;;
41927;SDS011;27616;51.420;6.788;2023-03-01T08:22:44;17.73;;;10.20;;
41927;SDS011;27616;51.420;6.788;2023-03-01T08:25:10;18.73;;;9.33;;
41927;SDS011;27616;51.420;6.788;2023-03-01T08:27:36;18.83;;;9.97;;
41927;SDS011;27616;51.420;6.788;2023-03-01T08:30:01;17.63;;;9.57;;
41927;SDS011;27616;51.420;6.788;2023-03-01T08:32:27;17.47;;;9.60;;
41927;SDS011;27616;51.420;6.788;2023-03-01T08:34:53;17.23;;;8.47;;
41927;SDS011;27616;51.420;6.788;2023-03-01T08:37:19;17.83;;;8.57;;
41927;SDS011;27616;51.420;6.788;2023-03-01T08:39:44;18.63;;;8.47;;
41927;SDS011;27616;51.420;6.788;2023-03-01T08:42:11;19.03;;;8.83;;
41927;SDS011;27616;51.420;6.788;2023-03-01T08:44:37;16.93;;;8.53;;
41927;SDS011;27616;51.420;6.788;2023-03-01T08:47:02;17.37;;;8.67;;
41927;SDS011;27616;51.420;6.788;2023-03-01T08:49:29;15.63;;;8.67;;
41927;SDS011;27616;51.420;6.788;2023-03-01T08:51:57;15.50;;;8.93;;
41927;SDS011;27616;51.420;6.788;2023-03-01T08:54:23;16.13;;;8.87;;
41927;SDS011;27616;51.420;6.788;2023-03-01T08:56:49;15.10;;;8.57;;
41927;SDS011;27616;51.420;6.788;2023-03-01T08:59:15;15.27;;;8.53;;
41927;SDS011;27616;51.420;6.788;2023-03-01T09:01:42;17.57;;;8.87;;
41927;SDS011;27616;51.420;6.788;2023-03-01T09:04:09;13.77;;;8.50;;
41927;SDS011;27616;51.420;6.788;2023-03-01T09:06:35;14.90;;;8.40;;
41927;SDS011;27616;51.420;6.788;2023-03-01T09:09:02;15.67;;;8.70;;
41927;SDS011;27616;51.420;6.788;2023-03-01T09:11:29;18.00;;;8.33;;
41927;SDS011;27616;51.420;6.788;2023-03-01T09:13:55;13.57;;;8.03;;
41927;SDS011;27616;51.420;6.788;2023-03-01T09:16:21;13.27;;;7.90;;
41927;SDS011;27616;51.420;6.788;2023-03-01T09:18:51;15.00;;;8.40;;
41927;SDS011;27616;51.420;6.788;2023-03-01T09:21:18;13.23;;;8.37;;
41927;SDS011;27616;51.420;6.788;2023-03-01T09:23:46;15.20;;;7.73;;
41927;SDS011;27616;51.420;6.788;2023-03-01T09:28:44;13.25;;;7.57;;
41927;SDS011;27616;51.420;6.788;2023-03-01T09:31:10;12.87;;;7.43;;
41927;SDS011;27616;51.420;6.788;2023-03-01T09:33:40;14.35;;;8.10;;
41927;SDS011;27616;51.420;6.788;2023-03-01T09:36:08;13.53;;;8.07;;
41927;SDS011;27616;51.420;6.788;2023-03-01T09:38:37;14.00;;;8.63;;
41927;SDS011;27616;51.420;6.788;2023-03-01T09:41:08;18.67;;;7.33;;
41927;SDS011;27616;51.420;6.788;2023-03-01T09:46:19;13.20;;;7.77;;
41927;SDS011;27616;51.420;6.788;2023-03-01T09:48:57;14.27;;;7.90;;
41927;SDS011;27616;51.420;6.788;2023-03-01T09:51:33;13.43;;;7.20;;
41927;SDS011;27616;51.420;6.788;2023-03-01T09:54:01;11.40;;;7.07;;
41927;SDS011;27616;51.420;6.788;2023-03-01T10:04:55;10.70;;;7.37;;
41927;SDS011;27616;51.420;6.788;2023-03-01T10:10:48;11.18;;;6.93;;
41927;SDS011;27616;51.420;6.788;2023-03-01T10:13:15;12.65;;;7.70;;
41927;SDS011;27616;51.420;6.788;2023-03-01T10:15:44;10.25;;;6.88;;
41927;SDS011;27616;51.420;6.788;2023-03-01T10:18:30;12.07;;;6.68;;
41927;SDS011;27616;51.420;6.788;2023-03-01T10:20:59;11.80;;;7.22;;
41927;SDS011;27616;51.420;6.788;2023-03-01T10:23:27;10.93;;;6.90;;
41927;SDS011;27616;51.420;6.788;2023-03-01T10:29:09;10.05;;;6.78;;
41927;SDS011;27616;51.420;6.788;2023-03-01T10:31:43;10.07;;;6.78;;
41927;SDS011;27616;51.420;6.788;2023-03-01T10:36:42;11.63;;;6.85;;
41927;SDS011;27616;51.420;6.788;2023-03-01T10:39:15;13.02;;;7.47;;
41927;SDS011;27616;51.420;6.788;2023-03-01T10:41:52;10.73;;;6.60;;
41927;SDS011;27616;51.420;6.788;2023-03-01T10:47:07;11.35;;;6.70;;
41927;SDS011;27616;51.420;6.788;2023-03-01T10:49:49;12.68;;;7.15;;
41927;SDS011;27616;51.420;6.788;2023-03-01T10:52:18;13.25;;;7.10;;
41927;SDS011;27616;51.420;6.788;2023-03-01T10:54:55;12.15;;;6.45;;
41927;SDS011;27616;51.420;6.788;2023-03-01T10:57:47;9.38;;;5.90;;
41927;SDS011;27616;51.420;6.788;2023-03-01T11:00:20;9.23;;;5.57;;
41927;SDS011;27616;51.420;6.788;2023-03-01T11:02:49;8.90;;;5.25;;
41927;SDS011;27616;51.420;6.788;2023-03-01T11:05:24;9.75;;;6.18;;
41927;SDS011;27616;51.420;6.788;2023-03-01T11:07:57;10.60;;;6.07;;
41927;SDS011;27616;51.420;6.788;2023-03-01T11:10:33;9.43;;;5.57;;
41927;SDS011;27616;51.420;6.788;2023-03-01T11:13:16;10.82;;;6.35;;
41927;SDS011;27616;51.420;6.788;2023-03-01T11:15:58;10.27;;;6.13;;
41927;SDS011;27616;51.420;6.788;2023-03-01T11:18:25;13.23;;;6.53;;
41927;SDS011;27616;51.420;6.788;2023-03-01T11:20:53;9.25;;;5.85;;
41927;SDS011;27616;51.420;6.788;2023-03-01T11:23:20;8.60;;;5.35;;
41927;SDS011;27616;51.420;6.788;2023-03-01T11:25:58;12.20;;;6.00;;
41927;SDS011;27616;51.420;6.788;2023-03-01T11:28:28;9.05;;;5.57;;
41927;SDS011;27616;51.420;6.788;2023-03-01T11:31:02;11.88;;;6.40;;
41927;SDS011;27616;51.420;6.788;2023-03-01T11:39:20;9.57;;;5.33;;
41927;SDS011;27616;51.420;6.788;2023-03-01T11:44:54;10.07;;;6.17;;
41927;SDS011;27616;51.420;6.788;2023-03-01T11:52:42;9.65;;;5.60;;
41927;SDS011;27616;51.420;6.788;2023-03-01T11:55:25;12.10;;;5.88;;
41927;SDS011;27616;51.420;6.788;2023-03-01T12:00:43;9.07;;;5.53;;
41927;SDS011;27616;51.420;6.788;2023-03-01T12:03:33;9.52;;;5.85;;
41927;SDS011;27616;51.420;6.788;2023-03-01T12:09:26;10.68;;;5.90;;
41927;SDS011;27616;51.420;6.788;2023-03-01T12:12:02;8.35;;;5.78;;
41927;SDS011;27616;51.420;6.788;2023-03-01T12:20:34;10.57;;;5.50;;
41927;SDS011;27616;51.420;6.788;2023-03-01T12:42:21;7.35;;;4.57;;
41927;SDS011;27616;51.420;6.788;2023-03-01T12:45:26;9.13;;;5.47;;
41927;SDS011;27616;51.420;6.788;2023-03-01T12:50:51;9.88;;;5.68;;
41927;SDS011;27616;51.420;6.788;2023-03-01T12:53:26;10.10;;;5.63;;
41927;SDS011;27616;51.420;6.788;2023-03-01T12:56:15;9.93;;;6.00;;
41927;SDS011;27616;51.420;6.788;2023-03-01T13:12:01;11.20;;;6.03;;
41927;SDS011;27616;51.420;6.788;2023-03-01T13:16:56;9.32;;;6.10;;
41927;SDS011;27616;51.420;6.788;2023-03-01T13:19:22;9.80;;;6.03;;
41927;SDS011;27616;51.420;6.788;2023-03-01T13:21:51;10.23;;;5.90;;
41927;SDS011;27616;51.420;6.788;2023-03-01T13:24:33;9.63;;;5.57;;
41927;SDS011;27616;51.420;6.788;2023-03-01T13:29:49;9.13;;;5.32;;
41927;SDS011;27616;51.420;6.788;2023-03-01T13:34:47;11.00;;;6.13;;
41927;SDS011;27616;51.420;6.788;2023-03-01T13:37:22;9.32;;;5.60;;
41927;SDS011;27616;51.420;6.788;2023-03-01T13:39:51;11.48;;;5.82;;
41927;SDS011;27616;51.420;6.788;2023-03-01T13:44:58;8.82;;;5.72;;
41927;SDS011;27616;51.420;6.788;2023-03-01T13:47:24;8.80;;;5.32;;
41927;SDS011;27616;51.420;6.788;2023-03-01T13:50:00;8.40;;;5.85;;
41927;SDS011;27616;51.420;6.788;2023-03-01T13:52:40;9.95;;;5.68;;
41927;SDS011;27616;51.420;6.788;2023-03-01T13:57:42;8.38;;;5.60;;
41927;SDS011;27616;51.420;6.788;2023-03-01T14:03:18;9.90;;;6.10;;
41927;SDS011;27616;51.420;6.788;2023-03-01T14:08:31;9.15;;;5.63;;
41927;SDS011;27616;51.420;6.788;2023-03-01T14:19:20;9.57;;;5.90;;
41927;SDS011;27616;51.420;6.788;2023-03-01T14:24:54;11.97;;;6.57;;
41927;SDS011;27616;51.420;6.788;2023-03-01T14:27:38;11.23;;;6.17;;
41927;SDS011;27616;51.420;6.788;2023-03-01T14:30:14;12.23;;;6.27;;
41927;SDS011;27616;51.420;6.788;2023-03-01T14:32:52;11.73;;;6.23;;
41927;SDS011;27616;51.420;6.788;2023-03-01T14:35:24;12.03;;;6.93;;
41927;SDS011;27616;51.420;6.788;2023-03-01T14:37:54;10.63;;;6.07;;
41927;SDS011;27616;51.420;6.788;2023-03-01T14:40:24;11.67;;;6.33;;
41927;SDS011;27616;51.420;6.788;2023-03-01T14:42:53;11.50;;;5.63;;
41927;SDS011;27616;51.420;6.788;2023-03-01T14:45:20;12.00;;;6.60;;
41927;SDS011;27616;51.420;6.788;2023-03-01T14:47:48;9.93;;;6.33;;
41927;SDS011;27616;51.420;6.788;2023-03-01T14:50:20;14.47;;;6.40;;
41927;SDS011;27616;51.420;6.788;2023-03-01T14:52:52;13.73;;;6.73;;
41927;SDS011;27616;51.420;6.788;2023-03-01T14:55:34;11.07;;;6.40;;
41927;SDS011;27616;51.420;6.788;2023-03-01T14:58:04;11.70;;;6.50;;
41927;SDS011;27616;51.420;6.788;2023-03-01T15:00:31;12.77;;;7.15;;
41927;SDS011;27616;51.420;6.788;2023-03-01T15:03:07;14.67;;;7.53;;
41927;SDS011;27616;51.420;6.788;2023-03-01T15:05:38;12.27;;;6.75;;
41927;SDS011;27616;51.420;6.788;2023-03-01T15:08:06;16.57;;;7.03;;
41927;SDS011;27616;51.420;6.788;2023-03-01T15:10:39;13.00;;;7.23;;
41927;SDS011;27616;51.420;6.788;2023-03-01T15:13:12;14.40;;;7.22;;
41927;SDS011;27616;51.420;6.788;2023-03-01T15:15:43;13.77;;;7.63;;
41927;SDS011;27616;51.420;6.788;2023-03-01T15:18:17;12.73;;;7.27;;
41927;SDS011;27616;51.420;6.788;2023-03-01T15:20:46;12.40;;;6.90;;
41927;SDS011;27616;51.420;6.788;2023-03-01T15:23:20;14.83;;;7.70;;
41927;SDS011;27616;51.420;6.788;2023-03-01T15:25:55;13.70;;;6.90;;
41927;SDS011;27616;51.420;6.788;2023-03-01T15:28:24;13.20;;;6.47;;
41927;SDS011;27616;51.420;6.788;2023-03-01T15:30:57;11.43;;;6.83;;
41927;SDS011;27616;51.420;6.788;2023-03-01T15:36:00;11.47;;;6.60;;
41927;SDS011;27616;51.420;6.788;2023-03-01T15:38:29;12.53;;;6.70;;
41927;SDS011;27616;51.420;6.788;2023-03-01T15:40:56;11.13;;;6.70;;
41927;SDS011;27616;51.420;6.788;2023-03-01T15:43:37;12.57;;;6.50;;
41927;SDS011;27616;51.420;6.788;2023-03-01T15:46:05;11.90;;;6.40;;
41927;SDS011;27616;51.420;6.788;2023-03-01T15:48:30;12.13;;;6.20;;
41927;SDS011;27616;51.420;6.788;2023-03-01T15:50:57;13.27;;;6.30;;
41927;SDS011;27616;51.420;6.788;2023-03-01T15:53:24;10.77;;;6.20;;
41927;SDS011;27616;51.420;6.788;2023-03-01T15:55:51;13.90;;;6.70;;
41927;SDS011;27616;51.420;6.788;2023-03-01T15:58:18;11.67;;;6.37;;
41927;SDS011;27616;51.420;6.788;2023-03-01T16:00:46;12.30;;;6.17;;
41927;SDS011;27616;51.420;6.788;2023-03-01T16:03:13;13.17;;;6.37;;
41927;SDS011;27616;51.420;6.788;2023-03-01T16:05:46;12.10;;;6.23;;
41927;SDS011;27616;51.420;6.788;2023-03-01T16:08:13;11.43;;;6.13;;
41927;SDS011;27616;51.420;6.788;2023-03-01T16:10:40;12.30;;;6.43;;
41927;SDS011;27616;51.420;6.788;2023-03-01T16:13:09;13.60;;;6.53;;
41927;SDS011;27616;51.420;6.788;2023-03-01T16:15:35;13.90;;;6.47;;
41927;SDS011;27616;51.420;6.788;2023-03-01T16:18:03;12.93;;;6.50;;
41927;SDS011;27616;51.420;6.788;2023-03-01T16:20:30;12.37;;;6.27;;
41927;SDS011;27616;51.420;6.788;2023-03-01T16:23:04;13.77;;;6.30;;
41927;SDS011;27616;51.420;6.788;2023-03-01T16:25:32;10.77;;;6.03;;
41927;SDS011;27616;51.420;6.788;2023-03-01T16:27:58;11.23;;;6.10;;
41927;SDS011;27616;51.420;6.788;2023-03-01T16:30:26;13.30;;;5.87;;
41927;SDS011;27616;51.420;6.788;2023-03-01T16:32:52;11.33;;;6.10;;
41927;SDS011;27616;51.420;6.788;2023-03-01T16:35:18;13.10;;;5.97;;
41927;SDS011;27616;51.420;6.788;2023-03-01T16:37:45;10.57;;;5.67;;
41927;SDS011;27616;51.420;6.788;2023-03-01T16:42:46;11.13;;;5.90;;
41927;SDS011;27616;51.420;6.788;2023-03-01T16:45:13;9.97;;;5.47;;
41927;SDS011;27616;51.420;6.788;2023-03-01T16:47:38;13.70;;;7.03;;
41927;SDS011;27616;51.420;6.788;2023-03-01T16:50:04;12.50;;;5.93;;
41927;SDS011;27616;51.420;6.788;2023-03-01T16:52:30;11.53;;;6.57;;
41927;SDS011;27616;51.420;6.788;2023-03-01T16:54:56;11.13;;;5.87;;
41927;SDS011;27616;51.420;6.788;2023-03-01T16:57:22;10.77;;;5.90;;
41927;SDS011;27616;51.420;6.788;2023-03-01T16:59:50;10.77;;;5.90;;